sensor_id;sensor_type;location;lat;lon;timestamp;temperature;humidity
44166;DHT22;30476;53.468;9.826;2024-01-25T00:01:58;8.20;99.90
44166;DHT22;30476;53.468;9.826;2024-01-25T00:04:24;8.30;99.90
44166;DHT22;30476;53.468;9.826;2024-01-25T00:06:50;8.20;99.90
44166;DHT22;30476;53.468;9.826;2024-01-25T00:09:16;8.20;99.90
44166;DHT22;30476;53.468;9.826;2024-01-25T00:11:42;8.20;99.90
44166;DHT22;30476;53.468;9.826;2024-01-25T00:14:08;8.20;99.90
44166;DHT22;30476;53.468;9.826;2024-01-25T00:16:34;8.20;99.90
44166;DHT22;30476;53.468;9.826;2024-01-25T00:19:00;8.20;99.90
44166;DHT22;30476;53.468;9.826;2024-01-25T00:21:25;8.20;99.90
44166;DHT22;30476;53.468;9.826;2024-01-25T00:23:51;8.20;99.90
44166;DHT22;30476;53.468;9.826;2024-01-25T00:26:17;8.20;99.90
44166;DHT22;30476;53.468;9.826;2024-01-25T00:28:43;8.10;99.90
44166;DHT22;30476;53.468;9.826;2024-01-25T00:31:08;8.10;99.90
44166;DHT22;30476;53.468;9.826;2024-01-25T00:33:34;8.10;99.90
44166;DHT22;30476;53.468;9.826;2024-01-25T00:36:00;8.10;99.90
44166;DHT22;30476;53.468;9.826;2024-01-25T00:38:26;8.10;99.90
44166;DHT22;30476;53.468;9.826;2024-01-25T00:40:52;8.10;99.90
44166;DHT22;30476;53.468;9.826;2024-01-25T00:43:18;8.10;99.90
44166;DHT22;30476;53.468;9.826;2024-01-25T00:45:44;8.10;99.90
44166;DHT22;30476;53.468;9.826;2024-01-25T00:48:11;8.00;99.90
44166;DHT22;30476;53.468;9.826;2024-01-25T00:50:38;8.00;99.90
44166;DHT22;30476;53.468;9.826;2024-01-25T00:53:04;8.00;99.90
44166;DHT22;30476;53.468;9.826;2024-01-25T00:55:30;8.10;99.90
44166;DHT22;30476;53.468;9.826;2024-01-25T00:57:56;8.00;99.90
44166;DHT22;30476;53.468;9.826;2024-01-25T01:00:22;8.10;99.90
44166;DHT22;30476;53.468;9.826;2024-01-25T01:02:48;8.10;99.90
44166;DHT22;30476;53.468;9.826;2024-01-25T01:05:14;8.10;99.90
44166;DHT22;30476;53.468;9.826;2024-01-25T01:07:40;8.10;99.90
44166;DHT22;30476;53.468;9.826;2024-01-25T01:10:07;8.10;99.90
44166;DHT22;30476;53.468;9.826;2024-01-25T01:12:33;8.10;99.90
44166;DHT22;30476;53.468;9.826;2024-01-25T01:14:58;8.10;99.90
44166;DHT22;30476;53.468;9.826;2024-01-25T01:17:24;8.10;99.90
44166;DHT22;30476;53.468;9.826;2024-01-25T01:19:50;8.10;99.90
44166;DHT22;30476;53.468;9.826;2024-01-25T01:22:15;8.10;99.90
44166;DHT22;30476;53.468;9.826;2024-01-25T01:24:41;8.10;99.90
44166;DHT22;30476;53.468;9.826;2024-01-25T01:27:07;8.20;99.90
44166;DHT22;30476;53.468;9.826;2024-01-25T01:29:33;8.20;99.90
44166;DHT22;30476;53.468;9.826;2024-01-25T01:31:59;8.20;99.90
44166;DHT22;30476;53.468;9.826;2024-01-25T01:34:24;8.20;99.90
44166;DHT22;30476;53.468;9.826;2024-01-25T01:36:50;8.20;99.90
44166;DHT22;30476;53.468;9.826;2024-01-25T01:39:16;8.20;99.90
44166;DHT22;30476;53.468;9.826;2024-01-25T01:41:41;8.20;99.90
44166;DHT22;30476;53.468;9.826;2024-01-25T01:44:08;8.20;99.90
44166;DHT22;30476;53.468;9.826;2024-01-25T01:46:35;8.20;99.90
44166;DHT22;30476;53.468;9.826;2024-01-25T01:49:12;8.20;99.90
44166;DHT22;30476;53.468;9.826;2024-01-25T01:51:38;8.20;99.90
44166;DHT22;30476;53.468;9.826;2024-01-25T01:54:09;8.10;99.90
44166;DHT22;30476;53.468;9.826;2024-01-25T01:56:35;8.10;99.90
44166;DHT22;30476;53.468;9.826;2024-01-25T01:59:02;8.20;99.90
44166;DHT22;30476;53.468;9.826;2024-01-25T02:01:29;8.10;99.90
44166;DHT22;30476;53.468;9.826;2024-01-25T02:03:55;8.10;99.90
44166;DHT22;30476;53.468;9.826;2024-01-25T02:06:23;8.10;99.90
44166;DHT22;30476;53.468;9.826;2024-01-25T02:08:49;8.10;99.90
44166;DHT22;30476;53.468;9.826;2024-01-25T02:11:25;8.10;99.90
44166;DHT22;30476;53.468;9.826;2024-01-25T02:13:50;8.10;99.90
44166;DHT22;30476;53.468;9.826;2024-01-25T02:16:16;8.10;99.90
44166;DHT22;30476;53.468;9.826;2024-01-25T02:18:43;8.10;99.90
44166;DHT22;30476;53.468;9.826;2024-01-25T02:21:09;8.20;99.90
44166;DHT22;30476;53.468;9.826;2024-01-25T02:23:34;8.20;99.90
44166;DHT22;30476;53.468;9.826;2024-01-25T02:26:00;8.20;99.90
44166;DHT22;30476;53.468;9.826;2024-01-25T02:28:26;8.20;99.90
44166;DHT22;30476;53.468;9.826;2024-01-25T02:30:52;8.20;99.90
44166;DHT22;30476;53.468;9.826;2024-01-25T02:33:18;8.20;99.90
44166;DHT22;30476;53.468;9.826;2024-01-25T02:35:43;8.20;99.90
44166;DHT22;30476;53.468;9.826;2024-01-25T02:38:09;8.20;99.90
44166;DHT22;30476;53.468;9.826;2024-01-25T02:40:35;8.20;99.90
44166;DHT22;30476;53.468;9.826;2024-01-25T02:43:01;8.20;99.90
44166;DHT22;30476;53.468;9.826;2024-01-25T02:45:26;8.20;99.90
44166;DHT22;30476;53.468;9.826;2024-01-25T02:47:52;8.20;99.90
44166;DHT22;30476;53.468;9.826;2024-01-25T02:50:18;8.20;99.90
44166;DHT22;30476;53.468;9.826;2024-01-25T02:52:44;8.20;99.90
44166;DHT22;30476;53.468;9.826;2024-01-25T02:55:10;8.20;99.90
44166;DHT22;30476;53.468;9.826;2024-01-25T02:57:35;8.20;99.90
44166;DHT22;30476;53.468;9.826;2024-01-25T03:00:01;8.20;99.90
44166;DHT22;30476;53.468;9.826;2024-01-25T03:02:27;8.20;99.90
44166;DHT22;30476;53.468;9.826;2024-01-25T03:04:53;8.20;99.90
44166;DHT22;30476;53.468;9.826;2024-01-25T03:07:18;8.20;99.90
44166;DHT22;30476;53.468;9.826;2024-01-25T03:09:44;8.20;99.90
44166;DHT22;30476;53.468;9.826;2024-01-25T03:12:10;8.20;99.90
44166;DHT22;30476;53.468;9.826;2024-01-25T03:14:36;8.20;99.90
44166;DHT22;30476;53.468;9.826;2024-01-25T03:17:02;8.20;99.90
44166;DHT22;30476;53.468;9.826;2024-01-25T03:19:28;8.20;99.90
44166;DHT22;30476;53.468;9.826;2024-01-25T03:21:54;8.20;99.90
44166;DHT22;30476;53.468;9.826;2024-01-25T03:24:21;8.20;99.90
44166;DHT22;30476;53.468;9.826;2024-01-25T03:26:47;8.10;99.90
44166;DHT22;30476;53.468;9.826;2024-01-25T03:29:14;8.10;99.90
44166;DHT22;30476;53.468;9.826;2024-01-25T03:31:40;8.10;99.90
44166;DHT22;30476;53.468;9.826;2024-01-25T03:34:05;8.10;99.90
44166;DHT22;30476;53.468;9.826;2024-01-25T03:36:31;8.10;99.90
44166;DHT22;30476;53.468;9.826;2024-01-25T03:38:57;8.10;99.90
44166;DHT22;30476;53.468;9.826;2024-01-25T03:41:23;8.10;99.90
44166;DHT22;30476;53.468;9.826;2024-01-25T03:43:50;8.10;99.90
44166;DHT22;30476;53.468;9.826;2024-01-25T03:46:16;8.10;99.90
44166;DHT22;30476;53.468;9.826;2024-01-25T03:48:41;8.10;99.90
44166;DHT22;30476;53.468;9.826;2024-01-25T03:51:08;8.00;99.90
44166;DHT22;30476;53.468;9.826;2024-01-25T03:53:34;8.00;99.90
44166;DHT22;30476;53.468;9.826;2024-01-25T03:56:00;8.00;99.90
44166;DHT22;30476;53.468;9.826;2024-01-25T03:58:25;8.00;99.90
44166;DHT22;30476;53.468;9.826;2024-01-25T04:00:51;8.00;99.90
44166;DHT22;30476;53.468;9.826;2024-01-25T04:03:17;8.00;99.90
44166;DHT22;30476;53.468;9.826;2024-01-25T04:05:43;8.00;99.90
44166;DHT22;30476;53.468;9.826;2024-01-25T04:08:09;8.10;99.90
44166;DHT22;30476;53.468;9.826;2024-01-25T04:10:34;8.00;99.90
44166;DHT22;30476;53.468;9.826;2024-01-25T04:13:00;8.00;99.90
44166;DHT22;30476;53.468;9.826;2024-01-25T04:15:27;8.00;99.90
44166;DHT22;30476;53.468;9.826;2024-01-25T04:17:53;8.00;99.90
44166;DHT22;30476;53.468;9.826;2024-01-25T04:20:19;8.00;99.90
44166;DHT22;30476;53.468;9.826;2024-01-25T04:22:45;8.00;99.90
44166;DHT22;30476;53.468;9.826;2024-01-25T04:25:11;8.00;99.90
44166;DHT22;30476;53.468;9.826;2024-01-25T04:27:38;8.00;99.90
44166;DHT22;30476;53.468;9.826;2024-01-25T04:30:07;8.00;99.90
44166;DHT22;30476;53.468;9.826;2024-01-25T04:32:33;8.00;99.90
44166;DHT22;30476;53.468;9.826;2024-01-25T04:34:59;8.00;99.90
44166;DHT22;30476;53.468;9.826;2024-01-25T04:37:25;8.10;99.90
44166;DHT22;30476;53.468;9.826;2024-01-25T04:39:51;8.00;99.90
44166;DHT22;30476;53.468;9.826;2024-01-25T04:42:17;8.10;99.90
44166;DHT22;30476;53.468;9.826;2024-01-25T04:44:43;8.10;99.90
44166;DHT22;30476;53.468;9.826;2024-01-25T04:47:09;8.10;99.90
44166;DHT22;30476;53.468;9.826;2024-01-25T04:49:35;8.00;99.90
44166;DHT22;30476;53.468;9.826;2024-01-25T04:52:01;8.00;99.90
44166;DHT22;30476;53.468;9.826;2024-01-25T04:54:27;8.00;99.90
44166;DHT22;30476;53.468;9.826;2024-01-25T04:56:53;8.00;99.90
44166;DHT22;30476;53.468;9.826;2024-01-25T04:59:19;8.10;99.90
44166;DHT22;30476;53.468;9.826;2024-01-25T05:01:44;8.00;99.90
44166;DHT22;30476;53.468;9.826;2024-01-25T05:04:10;8.00;99.90
44166;DHT22;30476;53.468;9.826;2024-01-25T05:06:36;8.00;99.90
44166;DHT22;30476;53.468;9.826;2024-01-25T05:09:02;8.00;99.90
44166;DHT22;30476;53.468;9.826;2024-01-25T05:11:28;8.00;99.90
44166;DHT22;30476;53.468;9.826;2024-01-25T05:13:54;8.00;99.90
44166;DHT22;30476;53.468;9.826;2024-01-25T05:16:20;8.00;99.90
44166;DHT22;30476;53.468;9.826;2024-01-25T05:18:46;8.00;99.90
44166;DHT22;30476;53.468;9.826;2024-01-25T05:21:11;8.00;99.90
44166;DHT22;30476;53.468;9.826;2024-01-25T05:23:37;8.00;99.90
44166;DHT22;30476;53.468;9.826;2024-01-25T05:26:03;8.10;99.90
44166;DHT22;30476;53.468;9.826;2024-01-25T05:28:29;8.10;99.90
44166;DHT22;30476;53.468;9.826;2024-01-25T05:30:54;8.10;99.90
44166;DHT22;30476;53.468;9.826;2024-01-25T05:33:20;8.00;99.90
44166;DHT22;30476;53.468;9.826;2024-01-25T05:35:45;8.10;99.90
44166;DHT22;30476;53.468;9.826;2024-01-25T05:38:11;8.10;99.90
44166;DHT22;30476;53.468;9.826;2024-01-25T05:40:37;8.00;99.90
44166;DHT22;30476;53.468;9.826;2024-01-25T05:43:03;8.00;99.90
44166;DHT22;30476;53.468;9.826;2024-01-25T05:45:28;8.00;99.90
44166;DHT22;30476;53.468;9.826;2024-01-25T05:47:54;8.00;99.90
44166;DHT22;30476;53.468;9.826;2024-01-25T05:50:20;8.00;99.90
44166;DHT22;30476;53.468;9.826;2024-01-25T05:52:46;8.00;99.90
44166;DHT22;30476;53.468;9.826;2024-01-25T05:55:11;8.00;99.90
44166;DHT22;30476;53.468;9.826;2024-01-25T05:57:42;8.00;99.90
44166;DHT22;30476;53.468;9.826;2024-01-25T06:00:08;8.00;99.90
44166;DHT22;30476;53.468;9.826;2024-01-25T06:02:36;8.00;99.90
44166;DHT22;30476;53.468;9.826;2024-01-25T06:05:02;8.00;99.90
44166;DHT22;30476;53.468;9.826;2024-01-25T06:07:28;8.00;99.90
44166;DHT22;30476;53.468;9.826;2024-01-25T06:09:54;7.90;99.90
44166;DHT22;30476;53.468;9.826;2024-01-25T06:12:20;7.90;99.90
44166;DHT22;30476;53.468;9.826;2024-01-25T06:14:46;7.90;99.90
44166;DHT22;30476;53.468;9.826;2024-01-25T06:17:12;7.90;99.90
44166;DHT22;30476;53.468;9.826;2024-01-25T06:19:38;7.90;99.90
44166;DHT22;30476;53.468;9.826;2024-01-25T06:22:03;7.90;99.90
44166;DHT22;30476;53.468;9.826;2024-01-25T06:24:29;7.90;99.90
44166;DHT22;30476;53.468;9.826;2024-01-25T06:26:55;7.90;99.90
44166;DHT22;30476;53.468;9.826;2024-01-25T06:29:21;7.90;99.90
44166;DHT22;30476;53.468;9.826;2024-01-25T06:31:47;7.90;99.90
44166;DHT22;30476;53.468;9.826;2024-01-25T06:34:13;7.80;99.90
44166;DHT22;30476;53.468;9.826;2024-01-25T06:36:39;7.80;99.90
44166;DHT22;30476;53.468;9.826;2024-01-25T06:39:04;7.80;99.90
44166;DHT22;30476;53.468;9.826;2024-01-25T06:41:30;7.80;99.90
44166;DHT22;30476;53.468;9.826;2024-01-25T06:43:56;7.80;99.90
44166;DHT22;30476;53.468;9.826;2024-01-25T06:46:22;7.80;99.90
44166;DHT22;30476;53.468;9.826;2024-01-25T06:48:50;7.80;99.90
44166;DHT22;30476;53.468;9.826;2024-01-25T06:51:16;7.80;99.90
44166;DHT22;30476;53.468;9.826;2024-01-25T06:53:41;7.80;99.90
44166;DHT22;30476;53.468;9.826;2024-01-25T06:56:07;7.70;99.90
44166;DHT22;30476;53.468;9.826;2024-01-25T06:58:33;7.70;99.90
44166;DHT22;30476;53.468;9.826;2024-01-25T07:00:59;7.70;99.90
44166;DHT22;30476;53.468;9.826;2024-01-25T07:03:25;7.70;99.90
44166;DHT22;30476;53.468;9.826;2024-01-25T07:05:51;7.70;99.90
44166;DHT22;30476;53.468;9.826;2024-01-25T07:08:16;7.70;99.90
44166;DHT22;30476;53.468;9.826;2024-01-25T07:10:43;7.70;99.90
44166;DHT22;30476;53.468;9.826;2024-01-25T07:13:09;7.70;99.90
44166;DHT22;30476;53.468;9.826;2024-01-25T07:15:35;7.80;99.90
44166;DHT22;30476;53.468;9.826;2024-01-25T07:18:01;7.80;99.90
44166;DHT22;30476;53.468;9.826;2024-01-25T07:20:27;7.80;99.90
44166;DHT22;30476;53.468;9.826;2024-01-25T07:22:53;7.80;99.90
44166;DHT22;30476;53.468;9.826;2024-01-25T07:25:19;7.80;99.90
44166;DHT22;30476;53.468;9.826;2024-01-25T07:27:45;7.80;99.90
44166;DHT22;30476;53.468;9.826;2024-01-25T07:30:13;7.90;99.90
44166;DHT22;30476;53.468;9.826;2024-01-25T07:32:39;7.90;99.90
44166;DHT22;30476;53.468;9.826;2024-01-25T07:35:10;7.90;99.90
44166;DHT22;30476;53.468;9.826;2024-01-25T07:37:36;7.90;99.90
44166;DHT22;30476;53.468;9.826;2024-01-25T07:40:02;7.90;99.90
44166;DHT22;30476;53.468;9.826;2024-01-25T07:42:32;7.90;99.90
44166;DHT22;30476;53.468;9.826;2024-01-25T07:44:57;7.90;99.90
44166;DHT22;30476;53.468;9.826;2024-01-25T07:47:23;8.00;99.90
44166;DHT22;30476;53.468;9.826;2024-01-25T07:49:48;8.00;99.90
44166;DHT22;30476;53.468;9.826;2024-01-25T07:52:14;8.00;99.90
44166;DHT22;30476;53.468;9.826;2024-01-25T07:54:40;8.00;99.90
44166;DHT22;30476;53.468;9.826;2024-01-25T07:57:06;8.00;99.90
44166;DHT22;30476;53.468;9.826;2024-01-25T07:59:32;8.10;99.90
44166;DHT22;30476;53.468;9.826;2024-01-25T08:01:58;8.10;99.90
44166;DHT22;30476;53.468;9.826;2024-01-25T08:04:23;8.10;99.90
44166;DHT22;30476;53.468;9.826;2024-01-25T08:06:49;8.10;99.90
44166;DHT22;30476;53.468;9.826;2024-01-25T08:09:15;8.10;99.90
44166;DHT22;30476;53.468;9.826;2024-01-25T08:11:41;8.10;99.90
44166;DHT22;30476;53.468;9.826;2024-01-25T08:14:07;8.10;99.90
44166;DHT22;30476;53.468;9.826;2024-01-25T08:16:33;8.10;99.90
44166;DHT22;30476;53.468;9.826;2024-01-25T08:19:00;8.10;99.90
44166;DHT22;30476;53.468;9.826;2024-01-25T08:21:26;8.10;99.90
44166;DHT22;30476;53.468;9.826;2024-01-25T08:23:52;8.10;99.90
44166;DHT22;30476;53.468;9.826;2024-01-25T08:26:18;8.20;99.90
44166;DHT22;30476;53.468;9.826;2024-01-25T08:28:43;8.20;99.90
44166;DHT22;30476;53.468;9.826;2024-01-25T08:31:10;8.20;99.90
44166;DHT22;30476;53.468;9.826;2024-01-25T08:33:36;8.20;99.90
44166;DHT22;30476;53.468;9.826;2024-01-25T08:36:02;8.20;99.90
44166;DHT22;30476;53.468;9.826;2024-01-25T08:38:28;8.20;99.90
44166;DHT22;30476;53.468;9.826;2024-01-25T08:40:54;8.20;99.90
44166;DHT22;30476;53.468;9.826;2024-01-25T08:43:20;8.20;99.90
44166;DHT22;30476;53.468;9.826;2024-01-25T08:45:46;8.20;99.90
44166;DHT22;30476;53.468;9.826;2024-01-25T08:48:11;8.30;99.90
44166;DHT22;30476;53.468;9.826;2024-01-25T08:50:39;8.30;99.90
44166;DHT22;30476;53.468;9.826;2024-01-25T08:53:05;8.30;99.90
44166;DHT22;30476;53.468;9.826;2024-01-25T08:55:31;8.30;99.90
44166;DHT22;30476;53.468;9.826;2024-01-25T08:57:57;8.30;99.90
44166;DHT22;30476;53.468;9.826;2024-01-25T09:00:23;8.40;99.90
44166;DHT22;30476;53.468;9.826;2024-01-25T09:02:48;8.30;99.90
44166;DHT22;30476;53.468;9.826;2024-01-25T09:05:14;8.40;99.90
44166;DHT22;30476;53.468;9.826;2024-01-25T09:07:40;8.40;99.90
44166;DHT22;30476;53.468;9.826;2024-01-25T09:10:07;8.40;99.90
44166;DHT22;30476;53.468;9.826;2024-01-25T09:12:34;8.40;99.90
44166;DHT22;30476;53.468;9.826;2024-01-25T09:15:01;8.40;99.90
44166;DHT22;30476;53.468;9.826;2024-01-25T09:17:27;8.40;99.90
44166;DHT22;30476;53.468;9.826;2024-01-25T09:19:53;8.50;99.90
44166;DHT22;30476;53.468;9.826;2024-01-25T09:22:19;8.50;99.90
44166;DHT22;30476;53.468;9.826;2024-01-25T09:24:46;8.50;99.90
44166;DHT22;30476;53.468;9.826;2024-01-25T09:27:12;8.50;99.90
44166;DHT22;30476;53.468;9.826;2024-01-25T09:29:39;8.50;99.90
44166;DHT22;30476;53.468;9.826;2024-01-25T09:32:06;8.50;99.90
44166;DHT22;30476;53.468;9.826;2024-01-25T09:34:32;8.50;99.90
44166;DHT22;30476;53.468;9.826;2024-01-25T09:36:58;8.60;99.90
44166;DHT22;30476;53.468;9.826;2024-01-25T09:39:23;8.60;99.90
44166;DHT22;30476;53.468;9.826;2024-01-25T09:41:49;8.60;99.90
44166;DHT22;30476;53.468;9.826;2024-01-25T09:44:15;8.70;99.90
44166;DHT22;30476;53.468;9.826;2024-01-25T09:46:43;8.70;99.90
44166;DHT22;30476;53.468;9.826;2024-01-25T09:49:10;8.70;99.90
44166;DHT22;30476;53.468;9.826;2024-01-25T09:51:37;8.70;99.90
44166;DHT22;30476;53.468;9.826;2024-01-25T09:54:07;8.80;99.90
44166;DHT22;30476;53.468;9.826;2024-01-25T09:56:34;8.70;99.90
44166;DHT22;30476;53.468;9.826;2024-01-25T09:59:00;8.80;99.90
44166;DHT22;30476;53.468;9.826;2024-01-25T10:01:26;8.80;99.90
44166;DHT22;30476;53.468;9.826;2024-01-25T10:03:52;8.90;99.90
44166;DHT22;30476;53.468;9.826;2024-01-25T10:06:18;8.90;99.90
44166;DHT22;30476;53.468;9.826;2024-01-25T10:08:45;8.80;99.90
44166;DHT22;30476;53.468;9.826;2024-01-25T10:11:11;8.90;99.90
44166;DHT22;30476;53.468;9.826;2024-01-25T10:13:41;8.80;99.90
44166;DHT22;30476;53.468;9.826;2024-01-25T10:16:11;8.90;99.90
44166;DHT22;30476;53.468;9.826;2024-01-25T10:18:39;8.80;99.90
44166;DHT22;30476;53.468;9.826;2024-01-25T10:21:05;8.90;99.90
44166;DHT22;30476;53.468;9.826;2024-01-25T10:23:30;8.80;99.90
44166;DHT22;30476;53.468;9.826;2024-01-25T10:25:56;8.90;99.90
44166;DHT22;30476;53.468;9.826;2024-01-25T10:28:24;8.90;99.90
44166;DHT22;30476;53.468;9.826;2024-01-25T10:30:51;8.90;99.90
44166;DHT22;30476;53.468;9.826;2024-01-25T10:33:17;8.90;99.90
44166;DHT22;30476;53.468;9.826;2024-01-25T10:35:47;8.90;99.90
44166;DHT22;30476;53.468;9.826;2024-01-25T10:38:17;8.90;99.90
44166;DHT22;30476;53.468;9.826;2024-01-25T10:40:43;9.00;99.90
44166;DHT22;30476;53.468;9.826;2024-01-25T10:43:11;9.00;99.90
44166;DHT22;30476;53.468;9.826;2024-01-25T10:45:37;9.00;99.90
44166;DHT22;30476;53.468;9.826;2024-01-25T10:48:04;9.00;99.90
44166;DHT22;30476;53.468;9.826;2024-01-25T10:50:30;9.00;99.90
44166;DHT22;30476;53.468;9.826;2024-01-25T10:52:56;9.00;99.90
44166;DHT22;30476;53.468;9.826;2024-01-25T10:55:23;9.00;99.90
44166;DHT22;30476;53.468;9.826;2024-01-25T10:57:51;9.00;99.90
44166;DHT22;30476;53.468;9.826;2024-01-25T11:00:18;9.00;99.90
44166;DHT22;30476;53.468;9.826;2024-01-25T11:02:45;9.10;99.90
44166;DHT22;30476;53.468;9.826;2024-01-25T11:05:16;9.10;99.90
44166;DHT22;30476;53.468;9.826;2024-01-25T11:07:44;9.10;99.90
44166;DHT22;30476;53.468;9.826;2024-01-25T11:10:20;9.10;99.90
44166;DHT22;30476;53.468;9.826;2024-01-25T11:12:54;9.20;99.90
44166;DHT22;30476;53.468;9.826;2024-01-25T11:15:31;9.10;99.90
44166;DHT22;30476;53.468;9.826;2024-01-25T11:17:58;9.20;99.90
44166;DHT22;30476;53.468;9.826;2024-01-25T11:20:25;9.20;99.90
44166;DHT22;30476;53.468;9.826;2024-01-25T11:23:05;9.10;99.90
44166;DHT22;30476;53.468;9.826;2024-01-25T11:25:33;9.20;99.90
44166;DHT22;30476;53.468;9.826;2024-01-25T11:28:01;9.30;99.90
44166;DHT22;30476;53.468;9.826;2024-01-25T11:30:28;9.30;99.90
44166;DHT22;30476;53.468;9.826;2024-01-25T11:32:54;9.50;99.90
44166;DHT22;30476;53.468;9.826;2024-01-25T11:35:21;9.50;99.90
44166;DHT22;30476;53.468;9.826;2024-01-25T11:37:49;9.50;99.90
44166;DHT22;30476;53.468;9.826;2024-01-25T11:40:15;9.60;99.90
44166;DHT22;30476;53.468;9.826;2024-01-25T11:42:42;9.60;99.90
44166;DHT22;30476;53.468;9.826;2024-01-25T11:45:10;9.70;99.90
44166;DHT22;30476;53.468;9.826;2024-01-25T11:47:37;9.70;99.90
44166;DHT22;30476;53.468;9.826;2024-01-25T11:50:04;9.70;99.90
44166;DHT22;30476;53.468;9.826;2024-01-25T11:52:31;9.70;99.90
44166;DHT22;30476;53.468;9.826;2024-01-25T11:55:09;9.70;99.90
44166;DHT22;30476;53.468;9.826;2024-01-25T11:57:39;9.70;99.90
44166;DHT22;30476;53.468;9.826;2024-01-25T12:00:07;9.70;99.90
44166;DHT22;30476;53.468;9.826;2024-01-25T12:02:36;9.70;99.90
44166;DHT22;30476;53.468;9.826;2024-01-25T12:05:02;9.70;99.90
44166;DHT22;30476;53.468;9.826;2024-01-25T12:07:32;9.70;99.90
44166;DHT22;30476;53.468;9.826;2024-01-25T12:10:03;9.70;99.90
44166;DHT22;30476;53.468;9.826;2024-01-25T12:12:29;9.70;99.90
44166;DHT22;30476;53.468;9.826;2024-01-25T12:14:58;9.70;99.90
44166;DHT22;30476;53.468;9.826;2024-01-25T12:17:27;9.70;99.90
44166;DHT22;30476;53.468;9.826;2024-01-25T12:19:57;9.70;99.90
44166;DHT22;30476;53.468;9.826;2024-01-25T12:22:24;9.70;99.90
44166;DHT22;30476;53.468;9.826;2024-01-25T12:24:53;9.60;99.90
44166;DHT22;30476;53.468;9.826;2024-01-25T12:27:20;9.60;99.90
44166;DHT22;30476;53.468;9.826;2024-01-25T12:29:48;9.60;99.90
44166;DHT22;30476;53.468;9.826;2024-01-25T12:32:14;9.60;99.90
44166;DHT22;30476;53.468;9.826;2024-01-25T12:34:39;9.60;99.90
44166;DHT22;30476;53.468;9.826;2024-01-25T12:37:07;9.60;99.90
44166;DHT22;30476;53.468;9.826;2024-01-25T12:39:33;9.60;99.90
44166;DHT22;30476;53.468;9.826;2024-01-25T12:41:59;9.50;99.90
44166;DHT22;30476;53.468;9.826;2024-01-25T12:44:25;9.60;99.90
44166;DHT22;30476;53.468;9.826;2024-01-25T12:46:51;9.60;99.90
44166;DHT22;30476;53.468;9.826;2024-01-25T12:49:17;9.60;99.90
44166;DHT22;30476;53.468;9.826;2024-01-25T12:51:43;9.60;99.90
44166;DHT22;30476;53.468;9.826;2024-01-25T12:54:09;9.70;99.90
44166;DHT22;30476;53.468;9.826;2024-01-25T12:56:35;9.70;99.90
44166;DHT22;30476;53.468;9.826;2024-01-25T12:59:01;9.80;99.90
44166;DHT22;30476;53.468;9.826;2024-01-25T13:01:27;9.80;99.90
44166;DHT22;30476;53.468;9.826;2024-01-25T13:03:53;9.80;99.90
44166;DHT22;30476;53.468;9.826;2024-01-25T13:06:18;9.80;99.90
44166;DHT22;30476;53.468;9.826;2024-01-25T13:08:44;9.80;99.90
44166;DHT22;30476;53.468;9.826;2024-01-25T13:11:12;9.80;99.90
44166;DHT22;30476;53.468;9.826;2024-01-25T13:13:37;9.80;99.90
44166;DHT22;30476;53.468;9.826;2024-01-25T13:16:04;9.80;99.90
44166;DHT22;30476;53.468;9.826;2024-01-25T13:18:29;9.80;99.90
44166;DHT22;30476;53.468;9.826;2024-01-25T13:20:55;9.80;99.90
44166;DHT22;30476;53.468;9.826;2024-01-25T13:23:21;9.80;99.90
44166;DHT22;30476;53.468;9.826;2024-01-25T13:25:46;9.90;99.90
44166;DHT22;30476;53.468;9.826;2024-01-25T13:28:12;9.90;99.90
44166;DHT22;30476;53.468;9.826;2024-01-25T13:30:38;9.90;99.90
44166;DHT22;30476;53.468;9.826;2024-01-25T13:33:04;10.00;99.90
44166;DHT22;30476;53.468;9.826;2024-01-25T13:35:29;10.10;99.90
44166;DHT22;30476;53.468;9.826;2024-01-25T13:37:55;10.10;99.90
44166;DHT22;30476;53.468;9.826;2024-01-25T13:40:26;10.10;99.90
44166;DHT22;30476;53.468;9.826;2024-01-25T13:42:52;10.10;99.90
44166;DHT22;30476;53.468;9.826;2024-01-25T13:45:20;10.20;99.90
44166;DHT22;30476;53.468;9.826;2024-01-25T13:47:46;10.20;99.90
44166;DHT22;30476;53.468;9.826;2024-01-25T13:50:12;10.20;99.90
44166;DHT22;30476;53.468;9.826;2024-01-25T13:52:38;10.30;99.90
44166;DHT22;30476;53.468;9.826;2024-01-25T13:55:04;10.40;99.90
44166;DHT22;30476;53.468;9.826;2024-01-25T13:57:30;10.50;99.90
44166;DHT22;30476;53.468;9.826;2024-01-25T13:59:55;10.50;99.90
44166;DHT22;30476;53.468;9.826;2024-01-25T14:02:21;10.60;99.90
44166;DHT22;30476;53.468;9.826;2024-01-25T14:04:47;10.60;99.90
44166;DHT22;30476;53.468;9.826;2024-01-25T14:07:14;10.70;99.90
44166;DHT22;30476;53.468;9.826;2024-01-25T14:09:40;10.70;99.90
44166;DHT22;30476;53.468;9.826;2024-01-25T14:12:06;10.80;99.90
44166;DHT22;30476;53.468;9.826;2024-01-25T14:14:32;10.80;99.90
44166;DHT22;30476;53.468;9.826;2024-01-25T14:16:58;10.80;99.90
44166;DHT22;30476;53.468;9.826;2024-01-25T14:19:24;10.80;99.90
44166;DHT22;30476;53.468;9.826;2024-01-25T14:21:49;10.80;99.90
44166;DHT22;30476;53.468;9.826;2024-01-25T14:24:16;10.80;99.90
44166;DHT22;30476;53.468;9.826;2024-01-25T14:26:43;10.80;99.90
44166;DHT22;30476;53.468;9.826;2024-01-25T14:29:09;10.80;99.90
44166;DHT22;30476;53.468;9.826;2024-01-25T14:31:36;10.70;99.90
44166;DHT22;30476;53.468;9.826;2024-01-25T14:34:01;10.70;99.90
44166;DHT22;30476;53.468;9.826;2024-01-25T14:36:27;10.70;99.90
44166;DHT22;30476;53.468;9.826;2024-01-25T14:38:53;10.70;99.90
44166;DHT22;30476;53.468;9.826;2024-01-25T14:41:18;10.60;99.90
44166;DHT22;30476;53.468;9.826;2024-01-25T14:43:44;10.60;99.90
44166;DHT22;30476;53.468;9.826;2024-01-25T14:46:10;10.50;99.90
44166;DHT22;30476;53.468;9.826;2024-01-25T14:48:36;10.50;99.90
44166;DHT22;30476;53.468;9.826;2024-01-25T14:51:02;10.50;99.90
44166;DHT22;30476;53.468;9.826;2024-01-25T14:53:28;10.40;99.90
44166;DHT22;30476;53.468;9.826;2024-01-25T14:55:54;10.40;99.90
44166;DHT22;30476;53.468;9.826;2024-01-25T14:58:19;10.30;99.90
44166;DHT22;30476;53.468;9.826;2024-01-25T15:00:49;10.30;99.90
44166;DHT22;30476;53.468;9.826;2024-01-25T15:03:15;10.30;99.90
44166;DHT22;30476;53.468;9.826;2024-01-25T15:05:41;10.30;99.90
44166;DHT22;30476;53.468;9.826;2024-01-25T15:08:07;10.20;99.90
44166;DHT22;30476;53.468;9.826;2024-01-25T15:10:32;10.20;99.90
44166;DHT22;30476;53.468;9.826;2024-01-25T15:12:58;10.20;99.90
44166;DHT22;30476;53.468;9.826;2024-01-25T15:15:25;10.10;99.90
44166;DHT22;30476;53.468;9.826;2024-01-25T15:17:57;10.10;99.90
44166;DHT22;30476;53.468;9.826;2024-01-25T15:20:23;10.10;99.90
44166;DHT22;30476;53.468;9.826;2024-01-25T15:22:49;10.00;99.90
44166;DHT22;30476;53.468;9.826;2024-01-25T15:25:15;10.00;99.90
44166;DHT22;30476;53.468;9.826;2024-01-25T15:27:42;10.00;99.90
44166;DHT22;30476;53.468;9.826;2024-01-25T15:30:08;10.00;99.90
44166;DHT22;30476;53.468;9.826;2024-01-25T15:32:37;9.90;99.90
44166;DHT22;30476;53.468;9.826;2024-01-25T15:35:03;9.90;99.90
44166;DHT22;30476;53.468;9.826;2024-01-25T15:37:29;9.90;99.90
44166;DHT22;30476;53.468;9.826;2024-01-25T15:39:55;9.80;99.90